Dorchester, New Hampshire
Current Conditions -  °F | °C
As of 3:55 AM on Saturday 25 Oct 2014 (Local Time) from K1P1 Reporting Station
Clear Clear  
Wind Chill: 41°   Ceiling: Unl
Heat Index: 45°   Visibility: 10mi
Dew Point: 38°   Wind: 8mph
Humidity: 75%   Direction: 310°NW
Pressure: 29.72"   Gusts: NA
Location:  43.7922°N, 71.8971°W
Report Text: K1P1 250755Z AUTO 31007KT 10SM CLR 07/03 A2972 RMK AO2 T00740032
Loading
Personal Weather Stations






























Interactive Weather Map
Tropical Storm Tracking
New forecast layout! Learn more

10-Day Weather Forecast

Advertisements
Track Severe Weather on mobile